createdAt,value
2019-02-12T00:00:05.984Z,18.87
2019-02-12T00:02:34.428Z,23.90
2019-02-12T00:05:02.876Z,20.10
2019-02-12T00:07:31.316Z,29.73
2019-02-12T00:09:59.776Z,26.50
2019-02-12T00:12:28.216Z,22.90
2019-02-12T00:14:56.728Z,20.07
2019-02-12T00:17:25.198Z,20.23
2019-02-12T00:19:53.660Z,20.57
2019-02-12T00:22:22.132Z,19.00
2019-02-12T00:24:50.753Z,25.50
2019-02-12T00:27:19.264Z,19.63
2019-02-12T00:29:47.796Z,18.90
2019-02-12T00:32:16.276Z,24.83
2019-02-12T00:34:44.863Z,23.87
2019-02-12T00:37:13.339Z,21.97
2019-02-12T00:39:41.976Z,31.30
2019-02-12T00:42:10.557Z,25.97
2019-02-12T00:44:39.114Z,22.37
2019-02-12T00:47:07.708Z,19.53
2019-02-12T00:49:36.246Z,16.57
2019-02-12T00:52:04.711Z,31.80
2019-02-12T00:54:33.333Z,24.03
2019-02-12T00:57:01.918Z,28.97
2019-02-12T00:59:30.577Z,25.97
2019-02-12T01:01:59.092Z,20.70
2019-02-12T01:04:27.601Z,24.93
2019-02-12T01:06:56.070Z,21.70
2019-02-12T01:09:24.630Z,30.63
2019-02-12T01:11:53.093Z,24.73
2019-02-12T01:14:21.535Z,25.37
2019-02-12T01:16:49.995Z,27.83
2019-02-12T01:19:18.608Z,31.80
2019-02-12T01:21:47.232Z,23.60
2019-02-12T01:24:15.727Z,25.67
2019-02-12T01:26:44.271Z,28.10
2019-02-12T01:29:12.760Z,30.00
2019-02-12T01:31:41.200Z,30.37
2019-02-12T01:34:10.001Z,25.77
2019-02-12T01:36:38.453Z,30.63
2019-02-12T01:39:09.992Z,36.20
2019-02-12T01:41:38.453Z,31.77
2019-02-12T01:44:06.984Z,25.17
2019-02-12T01:46:35.428Z,32.57
2019-02-12T01:49:03.888Z,31.53
2019-02-12T01:51:35.031Z,39.97
2019-02-12T01:54:02.580Z,36.00
2019-02-12T01:56:31.022Z,35.87
2019-02-12T01:58:59.485Z,31.30
2019-02-12T02:01:27.967Z,33.83
2019-02-12T02:03:56.449Z,28.77
2019-02-12T02:06:24.915Z,25.63
2019-02-12T02:08:53.352Z,28.23
2019-02-12T02:11:21.820Z,33.47
2019-02-12T02:13:50.266Z,28.13
2019-02-12T02:16:18.724Z,38.10
2019-02-12T02:18:47.167Z,29.80
2019-02-12T02:21:15.640Z,34.97
2019-02-12T02:23:44.083Z,31.30
2019-02-12T02:26:12.544Z,31.87
2019-02-12T02:28:40.994Z,34.80
2019-02-12T02:31:09.522Z,36.87
2019-02-12T02:33:37.972Z,32.83
2019-02-12T02:36:06.505Z,39.87
2019-02-12T02:38:34.952Z,35.83
2019-02-12T02:41:03.415Z,39.47
2019-02-12T02:43:31.852Z,30.70
2019-02-12T02:46:00.322Z,30.10
2019-02-12T02:48:28.767Z,34.10
2019-02-12T02:50:57.228Z,31.13
2019-02-12T02:53:26.029Z,40.73
2019-02-12T02:55:54.502Z,31.80
2019-02-12T02:58:22.940Z,28.63
2019-02-12T03:00:51.484Z,34.03
2019-02-12T03:03:19.927Z,48.47
2019-02-12T03:05:48.377Z,41.00
2019-02-12T03:08:16.836Z,47.07
2019-02-12T03:10:45.275Z,34.23
2019-02-12T03:13:13.810Z,35.37
2019-02-12T03:15:42.259Z,43.77
2019-02-12T03:18:10.793Z,32.50
2019-02-12T03:20:39.341Z,39.90
2019-02-12T03:23:07.799Z,31.93
2019-02-12T03:25:36.307Z,40.60
2019-02-12T03:28:04.773Z,41.33
2019-02-12T03:30:33.215Z,41.40
2019-02-12T03:33:01.750Z,40.37
2019-02-12T03:35:30.188Z,49.50
2019-02-12T03:37:58.657Z,40.07
2019-02-12T03:40:27.093Z,36.27
2019-02-12T03:42:55.564Z,45.73
2019-02-12T03:45:24.073Z,37.73
2019-02-12T03:47:52.595Z,44.73
2019-02-12T03:50:21.061Z,36.93
2019-02-12T03:52:49.500Z,45.37
2019-02-12T03:55:17.972Z,33.37
2019-02-12T03:57:46.484Z,40.23
2019-02-12T04:00:16.219Z,46.87
2019-02-12T04:03:02.073Z,48.20
2019-02-12T04:05:30.966Z,36.37
2019-02-12T04:07:59.474Z,39.47
2019-02-12T04:10:28.002Z,38.73
2019-02-12T04:12:56.452Z,39.83
2019-02-12T04:15:24.913Z,39.00
2019-02-12T04:17:53.352Z,31.40
2019-02-12T04:20:21.803Z,33.73
2019-02-12T04:22:50.251Z,40.13
2019-02-12T04:25:19.030Z,41.87
2019-02-12T04:27:47.470Z,34.53
2019-02-12T04:30:15.904Z,38.87
2019-02-12T04:32:44.405Z,33.43
2019-02-12T04:35:12.873Z,43.57
2019-02-12T04:37:41.336Z,37.13
2019-02-12T04:40:11.131Z,33.43
2019-02-12T04:42:39.591Z,36.37
2019-02-12T04:45:10.293Z,29.40
2019-02-12T04:47:38.836Z,35.43
2019-02-12T04:50:10.193Z,25.47
2019-02-12T04:52:38.656Z,38.37
2019-02-12T04:55:09.598Z,35.73
2019-02-12T04:57:38.204Z,37.53
2019-02-12T05:00:09.744Z,37.90
2019-02-12T05:02:38.216Z,31.80
2019-02-12T05:05:09.405Z,29.33
2019-02-12T05:07:37.869Z,38.40
2019-02-12T05:10:12.540Z,43.63
2019-02-12T05:12:41.008Z,40.27
2019-02-12T05:15:10.295Z,45.40
2019-02-12T05:17:38.759Z,35.27
2019-02-12T05:20:10.616Z,48.73
2019-02-12T05:22:43.475Z,48.07
2019-02-12T05:25:09.753Z,49.97
2019-02-12T05:27:38.214Z,48.53
2019-02-12T05:30:09.863Z,51.57
2019-02-12T05:32:38.313Z,49.37
2019-02-12T05:35:07.625Z,49.33
2019-02-12T05:37:36.089Z,56.67
2019-02-12T05:40:07.579Z,60.93
2019-02-12T05:42:36.023Z,55.40
2019-02-12T05:45:07.629Z,57.20
2019-02-12T05:47:36.067Z,59.03
2019-02-12T05:50:06.749Z,60.43
2019-02-12T05:52:35.188Z,58.23
2019-02-12T05:55:04.208Z,62.30
2019-02-12T05:57:32.668Z,65.10
2019-02-12T06:00:01.216Z,60.53
2019-02-12T06:02:29.674Z,60.60
2019-02-12T06:04:58.116Z,57.90
2019-02-12T06:07:26.576Z,58.57
2019-02-12T06:09:55.023Z,54.47
2019-02-12T06:12:23.485Z,65.43
2019-02-12T06:14:51.942Z,54.07
2019-02-12T06:17:20.380Z,58.77
2019-02-12T06:19:48.844Z,54.33
2019-02-12T06:22:17.293Z,62.53
2019-02-12T06:24:45.753Z,58.23
2019-02-12T06:27:14.195Z,56.70
2019-02-12T06:29:42.676Z,59.90
2019-02-12T06:32:11.208Z,67.83
2019-02-12T06:34:40.002Z,50.57
2019-02-12T06:37:09.500Z,45.83
2019-02-12T06:39:38.093Z,54.17
2019-02-12T06:42:06.550Z,53.23
2019-02-12T06:44:35.006Z,59.27
2019-02-12T06:47:03.738Z,52.70
2019-02-12T06:49:32.583Z,57.70
2019-02-12T06:52:01.035Z,45.17
2019-02-12T06:54:29.497Z,47.30
2019-02-12T06:56:57.977Z,50.03
2019-02-12T06:59:26.449Z,49.53
2019-02-12T07:02:14.523Z,40.20
2019-02-12T07:04:42.983Z,48.90
2019-02-12T07:07:17.452Z,46.70
2019-02-12T07:09:45.917Z,44.60
2019-02-12T07:12:23.193Z,46.30
2019-02-12T07:15:00.304Z,45.93
2019-02-12T07:17:40.907Z,45.07
2019-02-12T07:20:47.195Z,40.30
2019-02-12T07:23:21.719Z,45.40
2019-02-12T07:25:58.852Z,50.13
2019-02-12T07:28:51.673Z,38.80
2019-02-12T07:31:34.663Z,42.57
2019-02-12T07:34:11.928Z,38.03
2019-02-12T07:36:49.405Z,36.87
2019-02-12T07:39:57.236Z,38.20
2019-02-12T07:42:34.215Z,45.20
2019-02-12T07:45:37.312Z,32.57
2019-02-12T07:48:20.862Z,32.07
2019-02-12T07:50:52.480Z,33.60
2019-02-12T07:53:30.897Z,36.63
2019-02-12T07:56:06.274Z,40.73
2019-02-12T07:58:37.884Z,34.90
2019-02-12T08:01:42.644Z,34.60
2019-02-12T08:04:19.663Z,35.80
2019-02-12T08:06:59.735Z,31.90
2019-02-12T08:09:31.296Z,35.47
2019-02-12T08:12:08.696Z,33.47
2019-02-12T08:14:49.434Z,30.37
2019-02-12T08:17:41.944Z,42.27
2019-02-12T08:20:38.997Z,41.20
2019-02-12T08:23:19.528Z,36.00
2019-02-12T08:26:02.960Z,27.07
2019-02-12T08:28:52.161Z,31.27
2019-02-12T08:31:29.764Z,24.33
2019-02-12T08:34:21.052Z,28.53
2019-02-12T08:37:01.501Z,34.57
2019-02-12T08:39:44.481Z,34.67
2019-02-12T08:42:24.722Z,33.93
2019-02-12T08:45:25.192Z,31.00
2019-02-12T08:47:59.701Z,28.60
2019-02-12T08:50:46.132Z,33.80
2019-02-12T08:53:50.771Z,27.87
2019-02-12T08:56:25.404Z,30.43
2019-02-12T08:59:19.852Z,29.07
2019-02-12T09:02:02.677Z,22.63
2019-02-12T09:04:40.024Z,30.00
2019-02-12T09:07:23.650Z,27.83
2019-02-12T09:10:11.502Z,23.93
2019-02-12T09:12:49.214Z,28.20
2019-02-12T09:15:38.764Z,27.37
2019-02-12T09:18:25.109Z,27.03
2019-02-12T09:21:20.829Z,27.90
2019-02-12T09:24:07.271Z,28.70
2019-02-12T09:26:44.453Z,27.87
2019-02-12T09:29:21.605Z,25.47
2019-02-12T09:32:04.931Z,27.90
2019-02-12T09:34:36.465Z,22.27
2019-02-12T09:37:34.025Z,29.57
2019-02-12T09:40:19.425Z,27.07
2019-02-12T09:43:02.936Z,24.73
2019-02-12T09:45:43.815Z,26.27
2019-02-12T09:48:27.385Z,29.80
2019-02-12T09:50:59.253Z,24.53
2019-02-12T09:53:45.640Z,22.87
2019-02-12T09:56:20.030Z,24.00
2019-02-12T09:59:12.872Z,19.20
2019-02-12T10:02:21.242Z,19.70
2019-02-12T10:04:58.276Z,24.07
2019-02-12T10:07:38.526Z,20.50
2019-02-12T10:10:12.837Z,21.53
2019-02-12T10:12:56.141Z,16.30
2019-02-12T10:15:30.493Z,19.50
2019-02-12T10:18:17.301Z,21.13
2019-02-12T10:21:09.286Z,21.77
2019-02-12T10:23:49.666Z,15.27
2019-02-12T10:26:21.198Z,20.67
2019-02-12T10:29:18.339Z,17.23
2019-02-12T10:31:45.764Z,14.13
2019-02-12T10:34:14.344Z,17.93
2019-02-12T10:36:42.856Z,19.73
2019-02-12T10:39:11.789Z,18.87
2019-02-12T10:41:40.290Z,22.13
2019-02-12T10:44:08.744Z,14.67
2019-02-12T10:46:37.182Z,16.30
2019-02-12T10:49:05.739Z,13.93
2019-02-12T10:51:34.175Z,17.90
2019-02-12T10:54:02.617Z,17.47
2019-02-12T10:56:31.243Z,16.30
2019-02-12T10:58:59.684Z,13.80
2019-02-12T11:01:28.180Z,19.93
2019-02-12T11:03:57.201Z,19.17
2019-02-12T11:06:25.740Z,15.37
2019-02-12T11:08:54.181Z,12.80
2019-02-12T11:11:23.768Z,16.80
2019-02-12T11:13:52.298Z,13.07
2019-02-12T11:16:20.912Z,15.77
2019-02-12T11:18:49.353Z,19.20
2019-02-12T11:21:17.816Z,16.57
2019-02-12T11:23:46.428Z,13.67
2019-02-12T11:26:14.912Z,13.90
2019-02-12T11:28:43.633Z,14.80
2019-02-12T11:31:12.449Z,14.70
2019-02-12T11:33:40.910Z,17.10
2019-02-12T11:36:09.473Z,17.30
2019-02-12T11:38:38.022Z,16.07
2019-02-12T11:41:06.546Z,11.57
2019-02-12T11:43:35.164Z,15.27
2019-02-12T11:46:04.000Z,14.70
2019-02-12T11:48:32.636Z,16.57
2019-02-12T11:51:01.131Z,10.97
2019-02-12T11:53:29.621Z,15.03
2019-02-12T11:55:58.168Z,15.20
2019-02-12T11:58:26.681Z,12.63
2019-02-12T12:00:56.789Z,12.63
2019-02-12T12:03:25.313Z,11.93
2019-02-12T12:05:53.812Z,11.20
2019-02-12T12:08:22.276Z,12.80
2019-02-12T12:10:50.718Z,10.77
2019-02-12T12:13:19.197Z,10.80
2019-02-12T12:15:47.659Z,9.63
2019-02-12T12:18:16.093Z,10.90
2019-02-12T12:20:44.909Z,13.37
2019-02-12T12:23:13.331Z,9.40
2019-02-12T12:25:42.087Z,13.97
2019-02-12T12:28:10.655Z,12.00
2019-02-12T12:30:39.511Z,9.50
2019-02-12T12:33:08.017Z,11.03
2019-02-12T12:35:36.546Z,11.23
2019-02-12T12:38:05.318Z,10.13
2019-02-12T12:40:33.799Z,15.00
2019-02-12T12:43:02.268Z,15.10
2019-02-12T12:45:30.767Z,13.83
2019-02-12T12:47:59.253Z,11.77
2019-02-12T12:50:27.724Z,11.17
2019-02-12T12:52:56.177Z,13.40
2019-02-12T12:55:25.424Z,12.63
2019-02-12T12:57:53.987Z,9.47
2019-02-12T13:00:22.501Z,8.67
2019-02-12T13:02:50.961Z,10.63
2019-02-12T13:05:25.375Z,10.97
2019-02-12T13:07:53.842Z,10.50
2019-02-12T13:10:22.369Z,16.33
2019-02-12T13:12:51.004Z,12.40
2019-02-12T13:15:19.520Z,10.67
2019-02-12T13:17:48.065Z,12.07
2019-02-12T13:20:20.074Z,11.57
2019-02-12T13:22:48.601Z,11.80
2019-02-12T13:25:17.482Z,10.83
2019-02-12T13:27:46.076Z,13.03
2019-02-12T13:30:16.672Z,11.47
2019-02-12T13:32:45.160Z,10.63
2019-02-12T13:35:13.844Z,10.50
2019-02-12T13:37:42.470Z,12.23
2019-02-12T13:40:12.211Z,12.70
2019-02-12T13:42:40.738Z,10.03
2019-02-12T13:45:12.451Z,10.00
2019-02-12T13:47:40.968Z,10.50
2019-02-12T13:50:10.939Z,8.67
2019-02-12T13:52:39.371Z,9.43
2019-02-12T13:55:17.029Z,11.73
2019-02-12T13:57:39.426Z,11.40
2019-02-12T14:00:13.386Z,9.50
2019-02-12T14:02:41.811Z,11.30
2019-02-12T14:05:21.546Z,11.73
2019-02-12T14:07:50.118Z,11.57
2019-02-12T14:10:18.615Z,13.00
2019-02-12T14:12:47.080Z,11.53
2019-02-12T14:15:15.592Z,13.13
2019-02-12T14:17:44.059Z,11.07
2019-02-12T14:20:16.387Z,13.23
2019-02-12T14:22:44.856Z,14.07
2019-02-12T14:25:24.782Z,14.53
2019-02-12T14:27:46.871Z,14.03
2019-02-12T14:30:19.712Z,14.70
2019-02-12T14:32:48.244Z,11.53
2019-02-12T14:35:17.090Z,12.57
2019-02-12T14:37:45.877Z,16.47
2019-02-12T14:40:15.658Z,18.20
2019-02-12T14:42:44.209Z,15.83
2019-02-12T14:45:18.405Z,13.83
2019-02-12T14:47:46.873Z,13.93
2019-02-12T14:50:17.249Z,12.90
2019-02-12T14:52:45.776Z,13.10
2019-02-12T14:55:14.236Z,15.43
2019-02-12T14:57:42.819Z,12.43
2019-02-12T15:00:18.589Z,11.87
2019-02-12T15:02:47.133Z,14.53
2019-02-12T15:05:15.804Z,15.70
2019-02-12T15:07:44.404Z,13.67
2019-02-12T15:10:14.920Z,16.63
2019-02-12T15:12:43.453Z,17.23
2019-02-12T15:15:12.420Z,15.00
2019-02-12T15:17:40.859Z,12.27
2019-02-12T15:20:13.184Z,15.97
2019-02-12T15:22:41.769Z,15.73
2019-02-12T15:25:11.759Z,15.77
2019-02-12T15:27:40.368Z,16.43
2019-02-12T15:30:14.457Z,15.33
2019-02-12T15:32:43.830Z,13.37
2019-02-12T15:35:13.049Z,16.17
2019-02-12T15:37:41.512Z,12.30
2019-02-12T15:40:18.455Z,14.47
2019-02-12T15:42:46.888Z,19.03
2019-02-12T15:45:18.274Z,12.80
2019-02-12T15:47:47.035Z,15.90
2019-02-12T15:50:15.577Z,13.40
2019-02-12T15:52:44.012Z,13.07
2019-02-12T15:55:17.789Z,13.90
2019-02-12T15:57:46.332Z,17.67
2019-02-12T16:00:20.672Z,17.70
2019-02-12T16:02:49.521Z,18.33
2019-02-12T16:05:18.034Z,16.03
2019-02-12T16:07:47.388Z,15.40
2019-02-12T16:10:19.701Z,15.47
2019-02-12T16:12:49.436Z,14.17
2019-02-12T16:15:21.872Z,15.67
2019-02-12T16:17:49.819Z,16.30
2019-02-12T16:20:18.375Z,16.27
2019-02-12T16:22:46.904Z,12.90
2019-02-12T16:25:15.671Z,17.00
2019-02-12T16:27:44.422Z,14.20
2019-02-12T16:30:17.677Z,16.50
2019-02-12T16:32:46.200Z,14.30
2019-02-12T16:35:17.268Z,19.53
2019-02-12T16:37:45.968Z,16.20
2019-02-12T16:40:15.340Z,16.63
2019-02-12T16:42:43.826Z,17.20
2019-02-12T16:45:21.446Z,15.87
2019-02-12T16:47:49.905Z,17.80
2019-02-12T16:50:18.401Z,16.27
2019-02-12T16:52:46.860Z,15.60
2019-02-12T16:55:15.305Z,17.77
2019-02-12T16:57:43.759Z,18.57
2019-02-12T17:00:17.294Z,14.83
2019-02-12T17:02:46.726Z,17.43
2019-02-12T17:05:15.622Z,17.30
2019-02-12T17:07:45.113Z,18.07
2019-02-12T17:10:14.196Z,14.67
2019-02-12T17:12:42.731Z,17.87
2019-02-12T17:15:14.908Z,16.73
2019-02-12T17:17:43.425Z,14.77
2019-02-12T17:20:14.810Z,16.07
2019-02-12T17:22:43.328Z,18.87
2019-02-12T17:25:11.852Z,16.03
2019-02-12T17:27:40.313Z,14.87
2019-02-12T17:30:11.520Z,16.87
2019-02-12T17:32:40.034Z,17.57
2019-02-12T17:35:09.144Z,14.23
2019-02-12T17:37:37.580Z,15.07
2019-02-12T17:40:09.252Z,16.20
2019-02-12T17:42:37.696Z,16.57
2019-02-12T17:45:09.600Z,16.43
2019-02-12T17:47:38.112Z,17.03
2019-02-12T17:50:09.227Z,16.37
2019-02-12T17:52:37.737Z,19.00
2019-02-12T17:55:07.836Z,15.83
2019-02-12T17:57:36.289Z,17.10
2019-02-12T18:00:15.288Z,12.73
2019-02-12T18:02:43.718Z,14.40
2019-02-12T18:05:13.138Z,15.60
2019-02-12T18:07:41.684Z,16.47
2019-02-12T18:10:11.486Z,17.97
2019-02-12T18:12:39.924Z,15.57
2019-02-12T18:15:13.453Z,16.77
2019-02-12T18:17:41.908Z,16.67
2019-02-12T18:20:14.989Z,16.73
2019-02-12T18:22:43.492Z,19.90
2019-02-12T18:25:12.023Z,15.63
2019-02-12T18:27:41.231Z,19.37
2019-02-12T18:30:14.913Z,15.67
2019-02-12T18:32:43.372Z,16.40
2019-02-12T18:35:11.881Z,14.67
2019-02-12T18:37:40.340Z,16.63
2019-02-12T18:40:16.641Z,15.00
2019-02-12T18:42:45.100Z,14.93
2019-02-12T18:45:19.405Z,18.03
2019-02-12T18:47:47.871Z,13.70
2019-02-12T18:50:16.312Z,18.20
2019-02-12T18:52:44.853Z,18.13
2019-02-12T18:55:16.683Z,15.00
2019-02-12T18:57:45.143Z,15.23
2019-02-12T19:00:19.026Z,13.27
2019-02-12T19:02:47.629Z,17.00
2019-02-12T19:05:16.434Z,16.23
2019-02-12T19:07:44.897Z,15.40
2019-02-12T19:10:15.148Z,17.63
2019-02-12T19:12:43.609Z,18.90
2019-02-12T19:15:20.233Z,13.63
2019-02-12T19:17:51.767Z,15.97
2019-02-12T19:20:20.223Z,13.27
2019-02-12T19:22:48.732Z,14.00
2019-02-12T19:25:17.192Z,12.90
2019-02-12T19:27:45.937Z,13.90
2019-02-12T19:30:16.369Z,16.47
2019-02-12T19:32:44.830Z,17.97
2019-02-12T19:35:13.376Z,14.30
2019-02-12T19:37:41.875Z,15.83
2019-02-12T19:40:11.961Z,13.70
2019-02-12T19:42:40.469Z,13.30
2019-02-12T19:45:14.606Z,15.70
2019-02-12T19:47:43.072Z,13.37
2019-02-12T19:50:12.619Z,16.50
2019-02-12T19:52:41.144Z,16.70
2019-02-12T19:55:10.448Z,14.37
2019-02-12T19:57:38.901Z,15.83
2019-02-12T20:00:19.248Z,13.97
2019-02-12T20:02:48.438Z,15.57
2019-02-12T20:05:17.044Z,13.03
2019-02-12T20:07:45.500Z,16.40
2019-02-12T20:10:14.881Z,20.63
2019-02-12T20:12:43.608Z,16.60
2019-02-12T20:15:20.552Z,14.37
2019-02-12T20:17:49.028Z,15.23
2019-02-12T20:20:17.484Z,17.53
2019-02-12T20:22:46.024Z,17.70
2019-02-12T20:25:14.550Z,18.93
2019-02-12T20:27:43.340Z,17.77
2019-02-12T20:30:15.888Z,17.73
2019-02-12T20:32:44.364Z,17.17
2019-02-12T20:35:15.226Z,19.10
2019-02-12T20:37:43.689Z,16.67
2019-02-12T20:40:13.680Z,18.57
2019-02-12T20:42:42.141Z,16.17
2019-02-12T20:45:15.646Z,16.27
2019-02-12T20:47:44.237Z,16.20
2019-02-12T20:50:14.329Z,16.27
2019-02-12T20:52:42.858Z,15.03
2019-02-12T20:55:11.655Z,16.27
2019-02-12T20:57:40.526Z,16.70
2019-02-12T21:00:14.707Z,16.43
2019-02-12T21:02:43.306Z,18.00
2019-02-12T21:05:13.696Z,16.80
2019-02-12T21:07:42.477Z,16.90
2019-02-12T21:10:13.745Z,17.33
2019-02-12T21:12:42.500Z,17.63
2019-02-12T21:15:13.776Z,18.13
2019-02-12T21:17:42.216Z,22.70
2019-02-12T21:20:11.570Z,19.27
2019-02-12T21:22:40.849Z,19.67
2019-02-12T21:25:11.152Z,16.97
2019-02-12T21:27:39.660Z,18.20
2019-02-12T21:30:28.687Z,17.73
2019-02-12T21:32:57.124Z,19.67
2019-02-12T21:35:25.585Z,19.37
2019-02-12T21:37:54.028Z,17.97
2019-02-12T21:40:27.326Z,17.50
2019-02-12T21:42:55.779Z,17.00
2019-02-12T21:45:24.303Z,17.03
2019-02-12T21:47:52.750Z,22.77
2019-02-12T21:50:21.221Z,20.07
2019-02-12T21:52:49.660Z,18.87
2019-02-12T21:55:19.781Z,20.20
2019-02-12T21:57:48.238Z,20.67
2019-02-12T22:00:21.013Z,17.73
2019-02-12T22:02:49.458Z,22.67
2019-02-12T22:05:18.256Z,12.77
2019-02-12T22:07:46.763Z,21.90
2019-02-12T22:10:21.317Z,18.60
2019-02-12T22:12:50.180Z,26.03
2019-02-12T22:15:18.678Z,21.73
2019-02-12T22:17:47.202Z,22.93
2019-02-12T22:20:17.480Z,21.07
2019-02-12T22:22:45.964Z,20.90
2019-02-12T22:25:14.521Z,20.03
2019-02-12T22:27:42.984Z,18.27
2019-02-12T22:30:17.168Z,18.03
2019-02-12T22:32:45.704Z,18.13
2019-02-12T22:35:14.659Z,18.97
2019-02-12T22:37:43.337Z,19.03
2019-02-12T22:40:15.920Z,23.07
2019-02-12T22:42:44.452Z,19.00
2019-02-12T22:45:21.105Z,19.43
2019-02-12T22:47:49.574Z,20.93
2019-02-12T22:50:18.148Z,21.30
2019-02-12T22:52:46.686Z,23.03
2019-02-12T22:55:15.197Z,19.50
2019-02-12T22:57:49.223Z,21.33
2019-02-12T23:00:24.792Z,20.03
2019-02-12T23:02:53.456Z,23.47
2019-02-12T23:05:22.279Z,16.60
2019-02-12T23:07:50.920Z,21.70
2019-02-12T23:10:19.404Z,17.17
2019-02-12T23:12:47.868Z,17.07
2019-02-12T23:15:16.325Z,24.40
2019-02-12T23:17:44.889Z,16.90
2019-02-12T23:20:13.477Z,16.77
2019-02-12T23:22:41.919Z,20.40
2019-02-12T23:25:10.452Z,17.77
2019-02-12T23:27:38.897Z,17.57
2019-02-12T23:30:09.559Z,19.17
2019-02-12T23:32:38.202Z,17.33
2019-02-12T23:35:07.165Z,17.33
2019-02-12T23:37:35.782Z,17.73
2019-02-12T23:40:05.796Z,19.87
2019-02-12T23:42:34.357Z,18.33
2019-02-12T23:45:02.914Z,19.50
2019-02-12T23:47:31.365Z,20.60
2019-02-12T23:49:59.833Z,18.63
2019-02-12T23:52:28.379Z,16.77
2019-02-12T23:54:57.103Z,14.83
2019-02-12T23:57:26.345Z,15.47
2019-02-12T23:59:54.933Z,16.73
